sensor_id;sensor_type;location;lat;lon;timestamp;P1;durP1;ratioP1;P2;durP2;ratioP2
48847;SDS011;36611;51.638;5.784;2023-06-26T00:01:01;3.85;;;3.05;;
48847;SDS011;36611;51.638;5.784;2023-06-26T00:03:28;3.25;;;2.80;;
48847;SDS011;36611;51.638;5.784;2023-06-26T00:05:55;3.25;;;2.78;;
48847;SDS011;36611;51.638;5.784;2023-06-26T00:08:27;2.95;;;2.65;;
48847;SDS011;36611;51.638;5.784;2023-06-26T00:10:54;3.47;;;2.80;;
48847;SDS011;36611;51.638;5.784;2023-06-26T00:13:21;2.60;;;2.35;;
48847;SDS011;36611;51.638;5.784;2023-06-26T00:15:48;3.10;;;2.80;;
48847;SDS011;36611;51.638;5.784;2023-06-26T00:18:15;3.03;;;2.72;;
48847;SDS011;36611;51.638;5.784;2023-06-26T00:20:42;3.10;;;2.80;;
48847;SDS011;36611;51.638;5.784;2023-06-26T00:23:09;2.70;;;2.50;;
48847;SDS011;36611;51.638;5.784;2023-06-26T00:25:36;2.95;;;2.63;;
48847;SDS011;36611;51.638;5.784;2023-06-26T00:28:02;3.38;;;2.90;;
48847;SDS011;36611;51.638;5.784;2023-06-26T00:30:29;3.17;;;2.88;;
48847;SDS011;36611;51.638;5.784;2023-06-26T00:32:56;2.80;;;2.60;;
48847;SDS011;36611;51.638;5.784;2023-06-26T00:35:23;3.13;;;2.80;;
48847;SDS011;36611;51.638;5.784;2023-06-26T00:37:49;2.70;;;2.50;;
48847;SDS011;36611;51.638;5.784;2023-06-26T00:40:16;2.97;;;2.67;;
48847;SDS011;36611;51.638;5.784;2023-06-26T00:42:43;3.00;;;2.70;;
48847;SDS011;36611;51.638;5.784;2023-06-26T00:45:09;2.90;;;2.60;;
48847;SDS011;36611;51.638;5.784;2023-06-26T00:47:36;3.55;;;3.15;;
48847;SDS011;36611;51.638;5.784;2023-06-26T00:50:03;3.00;;;2.70;;
48847;SDS011;36611;51.638;5.784;2023-06-26T00:52:31;2.85;;;2.55;;
48847;SDS011;36611;51.638;5.784;2023-06-26T00:54:58;3.08;;;2.78;;
48847;SDS011;36611;51.638;5.784;2023-06-26T00:57:25;3.25;;;2.95;;
48847;SDS011;36611;51.638;5.784;2023-06-26T00:59:52;2.90;;;2.70;;
48847;SDS011;36611;51.638;5.784;2023-06-26T01:02:20;3.22;;;2.92;;
48847;SDS011;36611;51.638;5.784;2023-06-26T01:04:49;2.70;;;2.50;;
48847;SDS011;36611;51.638;5.784;2023-06-26T01:07:17;2.75;;;2.42;;
48847;SDS011;36611;51.638;5.784;2023-06-26T01:09:47;3.13;;;2.83;;
48847;SDS011;36611;51.638;5.784;2023-06-26T01:12:14;3.58;;;2.97;;
48847;SDS011;36611;51.638;5.784;2023-06-26T01:14:41;3.38;;;2.88;;
48847;SDS011;36611;51.638;5.784;2023-06-26T01:17:09;2.92;;;2.65;;
48847;SDS011;36611;51.638;5.784;2023-06-26T01:19:41;2.90;;;2.70;;
48847;SDS011;36611;51.638;5.784;2023-06-26T01:27:24;3.35;;;3.05;;
48847;SDS011;36611;51.638;5.784;2023-06-26T01:29:51;3.22;;;2.92;;
48847;SDS011;36611;51.638;5.784;2023-06-26T01:32:19;2.88;;;2.60;;
48847;SDS011;36611;51.638;5.784;2023-06-26T01:34:46;3.25;;;2.95;;
48847;SDS011;36611;51.638;5.784;2023-06-26T01:37:13;3.30;;;3.00;;
48847;SDS011;36611;51.638;5.784;2023-06-26T01:39:39;3.10;;;2.80;;
48847;SDS011;36611;51.638;5.784;2023-06-26T01:42:06;3.28;;;2.97;;
48847;SDS011;36611;51.638;5.784;2023-06-26T01:44:35;3.53;;;2.90;;
48847;SDS011;36611;51.638;5.784;2023-06-26T01:47:08;4.57;;;3.20;;
48847;SDS011;36611;51.638;5.784;2023-06-26T01:49:47;3.22;;;2.92;;
48847;SDS011;36611;51.638;5.784;2023-06-26T01:52:24;2.83;;;2.63;;
48847;SDS011;36611;51.638;5.784;2023-06-26T01:55:31;2.92;;;2.72;;
48847;SDS011;36611;51.638;5.784;2023-06-26T01:57:50;3.15;;;2.85;;
48847;SDS011;36611;51.638;5.784;2023-06-26T02:00:20;3.70;;;3.30;;
48847;SDS011;36611;51.638;5.784;2023-06-26T02:02:48;3.72;;;2.60;;
48847;SDS011;36611;51.638;5.784;2023-06-26T02:05:14;3.53;;;2.95;;
48847;SDS011;36611;51.638;5.784;2023-06-26T02:07:42;3.00;;;2.70;;
48847;SDS011;36611;51.638;5.784;2023-06-26T02:10:08;3.15;;;2.85;;
48847;SDS011;36611;51.638;5.784;2023-06-26T02:12:36;3.30;;;3.00;;
48847;SDS011;36611;51.638;5.784;2023-06-26T02:15:04;4.10;;;2.92;;
48847;SDS011;36611;51.638;5.784;2023-06-26T02:17:32;3.40;;;3.10;;
48847;SDS011;36611;51.638;5.784;2023-06-26T02:19:59;3.22;;;2.92;;
48847;SDS011;36611;51.638;5.784;2023-06-26T02:22:25;3.25;;;2.95;;
48847;SDS011;36611;51.638;5.784;2023-06-26T02:24:52;3.17;;;2.90;;
48847;SDS011;36611;51.638;5.784;2023-06-26T02:27:18;3.00;;;2.78;;
48847;SDS011;36611;51.638;5.784;2023-06-26T02:29:45;3.60;;;2.85;;
48847;SDS011;36611;51.638;5.784;2023-06-26T02:32:11;3.67;;;3.10;;
48847;SDS011;36611;51.638;5.784;2023-06-26T02:34:38;3.10;;;2.80;;
48847;SDS011;36611;51.638;5.784;2023-06-26T02:37:04;3.38;;;3.08;;
48847;SDS011;36611;51.638;5.784;2023-06-26T02:39:34;3.13;;;2.88;;
48847;SDS011;36611;51.638;5.784;2023-06-26T02:42:01;3.35;;;3.05;;
48847;SDS011;36611;51.638;5.784;2023-06-26T02:44:28;3.85;;;3.05;;
48847;SDS011;36611;51.638;5.784;2023-06-26T02:46:55;3.20;;;2.90;;
48847;SDS011;36611;51.638;5.784;2023-06-26T02:49:21;3.08;;;2.80;;
48847;SDS011;36611;51.638;5.784;2023-06-26T02:51:49;3.08;;;2.88;;
48847;SDS011;36611;51.638;5.784;2023-06-26T02:54:27;2.92;;;2.53;;
48847;SDS011;36611;51.638;5.784;2023-06-26T02:57:00;2.90;;;2.70;;
48847;SDS011;36611;51.638;5.784;2023-06-26T02:59:29;2.80;;;2.60;;
48847;SDS011;36611;51.638;5.784;2023-06-26T03:01:56;3.35;;;2.80;;
48847;SDS011;36611;51.638;5.784;2023-06-26T03:06:58;3.33;;;3.03;;
48847;SDS011;36611;51.638;5.784;2023-06-26T03:09:25;3.03;;;2.83;;
48847;SDS011;36611;51.638;5.784;2023-06-26T03:11:52;2.90;;;2.65;;
48847;SDS011;36611;51.638;5.784;2023-06-26T03:14:20;3.30;;;3.00;;
48847;SDS011;36611;51.638;5.784;2023-06-26T03:16:46;3.30;;;2.92;;
48847;SDS011;36611;51.638;5.784;2023-06-26T03:19:13;3.25;;;2.83;;
48847;SDS011;36611;51.638;5.784;2023-06-26T03:22:03;3.38;;;2.92;;
48847;SDS011;36611;51.638;5.784;2023-06-26T03:24:30;2.70;;;2.50;;
48847;SDS011;36611;51.638;5.784;2023-06-26T03:26:57;3.00;;;2.70;;
48847;SDS011;36611;51.638;5.784;2023-06-26T03:29:23;3.20;;;2.90;;
48847;SDS011;36611;51.638;5.784;2023-06-26T03:31:50;2.67;;;2.47;;
48847;SDS011;36611;51.638;5.784;2023-06-26T03:34:17;3.10;;;2.80;;
48847;SDS011;36611;51.638;5.784;2023-06-26T03:36:43;3.30;;;3.00;;
48847;SDS011;36611;51.638;5.784;2023-06-26T03:39:11;2.80;;;2.60;;
48847;SDS011;36611;51.638;5.784;2023-06-26T03:41:37;3.13;;;2.83;;
48847;SDS011;36611;51.638;5.784;2023-06-26T03:44:04;3.28;;;2.97;;
48847;SDS011;36611;51.638;5.784;2023-06-26T03:46:40;2.92;;;2.72;;
48847;SDS011;36611;51.638;5.784;2023-06-26T03:49:07;3.45;;;2.70;;
48847;SDS011;36611;51.638;5.784;2023-06-26T03:51:36;3.17;;;2.88;;
48847;SDS011;36611;51.638;5.784;2023-06-26T03:54:03;3.35;;;3.05;;
48847;SDS011;36611;51.638;5.784;2023-06-26T03:56:30;2.92;;;2.67;;
48847;SDS011;36611;51.638;5.784;2023-06-26T03:58:56;2.60;;;2.40;;
48847;SDS011;36611;51.638;5.784;2023-06-26T04:01:25;2.85;;;2.60;;
48847;SDS011;36611;51.638;5.784;2023-06-26T04:03:52;3.17;;;2.88;;
48847;SDS011;36611;51.638;5.784;2023-06-26T04:06:18;2.83;;;2.63;;
48847;SDS011;36611;51.638;5.784;2023-06-26T04:08:45;2.72;;;2.53;;
48847;SDS011;36611;51.638;5.784;2023-06-26T04:11:12;3.35;;;3.05;;
48847;SDS011;36611;51.638;5.784;2023-06-26T04:13:38;2.72;;;2.47;;
48847;SDS011;36611;51.638;5.784;2023-06-26T04:16:05;3.17;;;2.88;;
48847;SDS011;36611;51.638;5.784;2023-06-26T04:18:33;3.17;;;2.90;;
48847;SDS011;36611;51.638;5.784;2023-06-26T04:21:09;2.80;;;2.50;;
48847;SDS011;36611;51.638;5.784;2023-06-26T04:23:40;2.95;;;2.63;;
48847;SDS011;36611;51.638;5.784;2023-06-26T04:26:07;2.50;;;2.30;;
48847;SDS011;36611;51.638;5.784;2023-06-26T04:28:35;3.25;;;2.67;;
48847;SDS011;36611;51.638;5.784;2023-06-26T04:31:02;2.97;;;2.72;;
48847;SDS011;36611;51.638;5.784;2023-06-26T04:33:32;2.97;;;2.67;;
48847;SDS011;36611;51.638;5.784;2023-06-26T04:35:58;3.00;;;2.70;;
48847;SDS011;36611;51.638;5.784;2023-06-26T04:38:26;2.97;;;2.70;;
48847;SDS011;36611;51.638;5.784;2023-06-26T04:40:52;2.88;;;2.60;;
48847;SDS011;36611;51.638;5.784;2023-06-26T04:43:19;2.53;;;2.33;;
48847;SDS011;36611;51.638;5.784;2023-06-26T04:45:45;2.97;;;2.75;;
48847;SDS011;36611;51.638;5.784;2023-06-26T04:48:12;2.80;;;2.50;;
48847;SDS011;36611;51.638;5.784;2023-06-26T04:50:39;2.60;;;2.40;;
48847;SDS011;36611;51.638;5.784;2023-06-26T04:53:06;2.90;;;2.60;;
48847;SDS011;36611;51.638;5.784;2023-06-26T04:55:33;3.10;;;2.80;;
48847;SDS011;36611;51.638;5.784;2023-06-26T04:58:05;2.70;;;2.50;;
48847;SDS011;36611;51.638;5.784;2023-06-26T05:00:31;2.65;;;2.45;;
48847;SDS011;36611;51.638;5.784;2023-06-26T05:02:59;2.88;;;2.63;;
48847;SDS011;36611;51.638;5.784;2023-06-26T05:05:27;3.20;;;2.90;;
48847;SDS011;36611;51.638;5.784;2023-06-26T05:07:55;3.28;;;2.78;;
48847;SDS011;36611;51.638;5.784;2023-06-26T05:10:22;3.28;;;2.97;;
48847;SDS011;36611;51.638;5.784;2023-06-26T05:12:49;2.65;;;2.45;;
48847;SDS011;36611;51.638;5.784;2023-06-26T05:15:15;3.30;;;2.50;;
48847;SDS011;36611;51.638;5.784;2023-06-26T05:17:42;3.33;;;3.03;;
48847;SDS011;36611;51.638;5.784;2023-06-26T05:20:09;2.60;;;2.40;;
48847;SDS011;36611;51.638;5.784;2023-06-26T05:22:36;2.70;;;2.50;;
48847;SDS011;36611;51.638;5.784;2023-06-26T05:25:05;2.90;;;2.60;;
48847;SDS011;36611;51.638;5.784;2023-06-26T05:27:34;2.97;;;2.63;;
48847;SDS011;36611;51.638;5.784;2023-06-26T05:30:02;6.07;;;2.28;;
48847;SDS011;36611;51.638;5.784;2023-06-26T05:32:29;2.47;;;2.28;;
48847;SDS011;36611;51.638;5.784;2023-06-26T05:35:00;2.60;;;2.40;;
48847;SDS011;36611;51.638;5.784;2023-06-26T05:37:28;3.13;;;2.35;;
48847;SDS011;36611;51.638;5.784;2023-06-26T05:39:57;2.83;;;2.53;;
48847;SDS011;36611;51.638;5.784;2023-06-26T05:42:23;3.00;;;2.70;;
48847;SDS011;36611;51.638;5.784;2023-06-26T05:44:50;3.10;;;2.58;;
48847;SDS011;36611;51.638;5.784;2023-06-26T05:47:17;2.95;;;2.60;;
48847;SDS011;36611;51.638;5.784;2023-06-26T05:49:44;2.65;;;2.40;;
48847;SDS011;36611;51.638;5.784;2023-06-26T05:52:10;2.40;;;2.15;;
48847;SDS011;36611;51.638;5.784;2023-06-26T05:54:38;2.78;;;2.55;;
48847;SDS011;36611;51.638;5.784;2023-06-26T05:57:04;3.55;;;2.78;;
48847;SDS011;36611;51.638;5.784;2023-06-26T05:59:31;2.70;;;2.50;;
48847;SDS011;36611;51.638;5.784;2023-06-26T06:01:58;3.00;;;2.70;;
48847;SDS011;36611;51.638;5.784;2023-06-26T06:04:25;2.60;;;2.40;;
48847;SDS011;36611;51.638;5.784;2023-06-26T06:06:52;2.33;;;2.13;;
48847;SDS011;36611;51.638;5.784;2023-06-26T06:09:18;3.20;;;2.33;;
48847;SDS011;36611;51.638;5.784;2023-06-26T06:11:45;2.97;;;2.50;;
48847;SDS011;36611;51.638;5.784;2023-06-26T06:14:11;3.15;;;2.45;;
48847;SDS011;36611;51.638;5.784;2023-06-26T06:16:38;3.15;;;2.72;;
48847;SDS011;36611;51.638;5.784;2023-06-26T06:19:05;5.32;;;3.10;;
48847;SDS011;36611;51.638;5.784;2023-06-26T06:21:33;3.88;;;3.00;;
48847;SDS011;36611;51.638;5.784;2023-06-26T06:24:00;3.83;;;2.40;;
48847;SDS011;36611;51.638;5.784;2023-06-26T06:26:27;3.42;;;2.80;;
48847;SDS011;36611;51.638;5.784;2023-06-26T06:28:54;4.82;;;2.67;;
48847;SDS011;36611;51.638;5.784;2023-06-26T06:31:20;4.43;;;2.92;;
48847;SDS011;36611;51.638;5.784;2023-06-26T06:33:47;2.42;;;2.22;;
48847;SDS011;36611;51.638;5.784;2023-06-26T06:36:13;4.05;;;2.25;;
48847;SDS011;36611;51.638;5.784;2023-06-26T06:38:43;4.22;;;2.72;;
48847;SDS011;36611;51.638;5.784;2023-06-26T06:41:10;4.45;;;2.70;;
48847;SDS011;36611;51.638;5.784;2023-06-26T06:43:36;5.18;;;2.97;;
48847;SDS011;36611;51.638;5.784;2023-06-26T06:46:03;3.95;;;2.60;;
48847;SDS011;36611;51.638;5.784;2023-06-26T06:48:30;4.07;;;2.60;;
48847;SDS011;36611;51.638;5.784;2023-06-26T06:50:57;4.05;;;2.30;;
48847;SDS011;36611;51.638;5.784;2023-06-26T06:53:24;3.72;;;2.78;;
48847;SDS011;36611;51.638;5.784;2023-06-26T06:55:50;5.72;;;2.78;;
48847;SDS011;36611;51.638;5.784;2023-06-26T06:58:17;5.15;;;2.67;;
48847;SDS011;36611;51.638;5.784;2023-06-26T07:00:45;2.85;;;2.22;;
48847;SDS011;36611;51.638;5.784;2023-06-26T07:03:12;3.75;;;2.58;;
48847;SDS011;36611;51.638;5.784;2023-06-26T07:05:40;5.15;;;2.80;;
48847;SDS011;36611;51.638;5.784;2023-06-26T07:08:08;3.67;;;2.75;;
48847;SDS011;36611;51.638;5.784;2023-06-26T07:10:35;5.15;;;2.95;;
48847;SDS011;36611;51.638;5.784;2023-06-26T07:13:01;4.35;;;2.65;;
48847;SDS011;36611;51.638;5.784;2023-06-26T07:15:28;4.38;;;2.47;;
48847;SDS011;36611;51.638;5.784;2023-06-26T07:17:55;4.43;;;2.60;;
48847;SDS011;36611;51.638;5.784;2023-06-26T07:20:21;4.20;;;2.80;;
48847;SDS011;36611;51.638;5.784;2023-06-26T07:22:48;5.82;;;2.88;;
48847;SDS011;36611;51.638;5.784;2023-06-26T07:25:15;5.65;;;2.95;;
48847;SDS011;36611;51.638;5.784;2023-06-26T07:27:41;3.45;;;2.40;;
48847;SDS011;36611;51.638;5.784;2023-06-26T07:30:09;3.42;;;2.40;;
48847;SDS011;36611;51.638;5.784;2023-06-26T07:32:39;4.15;;;2.40;;
48847;SDS011;36611;51.638;5.784;2023-06-26T07:35:09;5.50;;;2.80;;
48847;SDS011;36611;51.638;5.784;2023-06-26T07:37:35;4.13;;;2.60;;
48847;SDS011;36611;51.638;5.784;2023-06-26T07:40:02;3.17;;;2.25;;
48847;SDS011;36611;51.638;5.784;2023-06-26T07:42:29;3.92;;;2.70;;
48847;SDS011;36611;51.638;5.784;2023-06-26T07:44:56;4.95;;;2.65;;
48847;SDS011;36611;51.638;5.784;2023-06-26T07:47:22;3.20;;;2.33;;
48847;SDS011;36611;51.638;5.784;2023-06-26T07:49:49;3.38;;;2.53;;
48847;SDS011;36611;51.638;5.784;2023-06-26T07:52:17;4.25;;;2.40;;
48847;SDS011;36611;51.638;5.784;2023-06-26T07:54:45;3.15;;;2.30;;
48847;SDS011;36611;51.638;5.784;2023-06-26T07:57:11;4.05;;;2.67;;
48847;SDS011;36611;51.638;5.784;2023-06-26T07:59:39;5.25;;;2.67;;
48847;SDS011;36611;51.638;5.784;2023-06-26T08:02:05;2.83;;;2.15;;
48847;SDS011;36611;51.638;5.784;2023-06-26T08:04:32;4.07;;;2.40;;
48847;SDS011;36611;51.638;5.784;2023-06-26T08:07:00;3.67;;;2.40;;
48847;SDS011;36611;51.638;5.784;2023-06-26T08:09:28;3.67;;;2.38;;
48847;SDS011;36611;51.638;5.784;2023-06-26T08:11:55;3.13;;;2.30;;
48847;SDS011;36611;51.638;5.784;2023-06-26T08:14:23;3.25;;;2.17;;
48847;SDS011;36611;51.638;5.784;2023-06-26T08:16:50;3.67;;;2.40;;
48847;SDS011;36611;51.638;5.784;2023-06-26T08:19:16;3.50;;;2.22;;
48847;SDS011;36611;51.638;5.784;2023-06-26T08:21:44;3.75;;;2.47;;
48847;SDS011;36611;51.638;5.784;2023-06-26T08:24:12;3.70;;;2.40;;
48847;SDS011;36611;51.638;5.784;2023-06-26T08:26:45;2.97;;;2.30;;
48847;SDS011;36611;51.638;5.784;2023-06-26T08:29:13;3.42;;;2.13;;
48847;SDS011;36611;51.638;5.784;2023-06-26T08:31:40;4.30;;;2.22;;
48847;SDS011;36611;51.638;5.784;2023-06-26T08:34:07;2.60;;;2.20;;
48847;SDS011;36611;51.638;5.784;2023-06-26T08:36:34;6.30;;;2.58;;
48847;SDS011;36611;51.638;5.784;2023-06-26T08:39:01;3.00;;;2.17;;
48847;SDS011;36611;51.638;5.784;2023-06-26T08:41:27;3.50;;;2.25;;
48847;SDS011;36611;51.638;5.784;2023-06-26T08:43:54;2.95;;;2.10;;
48847;SDS011;36611;51.638;5.784;2023-06-26T08:46:20;3.30;;;2.00;;
48847;SDS011;36611;51.638;5.784;2023-06-26T08:48:56;4.65;;;2.35;;
48847;SDS011;36611;51.638;5.784;2023-06-26T08:51:28;2.90;;;2.08;;
48847;SDS011;36611;51.638;5.784;2023-06-26T08:53:58;3.10;;;2.10;;
48847;SDS011;36611;51.638;5.784;2023-06-26T08:56:35;3.50;;;2.10;;
48847;SDS011;36611;51.638;5.784;2023-06-26T08:59:04;3.03;;;2.33;;
48847;SDS011;36611;51.638;5.784;2023-06-26T09:01:31;8.13;;;2.75;;
48847;SDS011;36611;51.638;5.784;2023-06-26T09:03:58;4.05;;;2.42;;
48847;SDS011;36611;51.638;5.784;2023-06-26T09:06:25;2.40;;;2.08;;
48847;SDS011;36611;51.638;5.784;2023-06-26T09:08:51;3.88;;;1.95;;
48847;SDS011;36611;51.638;5.784;2023-06-26T09:11:18;2.83;;;2.15;;
48847;SDS011;36611;51.638;5.784;2023-06-26T09:13:45;3.47;;;2.30;;
48847;SDS011;36611;51.638;5.784;2023-06-26T09:16:13;3.25;;;2.20;;
48847;SDS011;36611;51.638;5.784;2023-06-26T09:18:40;3.72;;;2.00;;
48847;SDS011;36611;51.638;5.784;2023-06-26T09:21:09;2.88;;;2.20;;
48847;SDS011;36611;51.638;5.784;2023-06-26T09:23:36;3.47;;;2.08;;
48847;SDS011;36611;51.638;5.784;2023-06-26T09:26:03;2.70;;;2.20;;
48847;SDS011;36611;51.638;5.784;2023-06-26T09:28:34;3.13;;;2.40;;
48847;SDS011;36611;51.638;5.784;2023-06-26T09:31:05;3.45;;;2.15;;
48847;SDS011;36611;51.638;5.784;2023-06-26T09:33:35;3.28;;;2.10;;
48847;SDS011;36611;51.638;5.784;2023-06-26T09:36:07;3.10;;;2.30;;
48847;SDS011;36611;51.638;5.784;2023-06-26T09:38:36;2.83;;;1.70;;
48847;SDS011;36611;51.638;5.784;2023-06-26T09:41:03;2.83;;;1.70;;
48847;SDS011;36611;51.638;5.784;2023-06-26T09:43:30;3.08;;;1.80;;
48847;SDS011;36611;51.638;5.784;2023-06-26T09:45:58;2.80;;;1.90;;
48847;SDS011;36611;51.638;5.784;2023-06-26T09:48:27;3.97;;;1.92;;
48847;SDS011;36611;51.638;5.784;2023-06-26T09:50:54;3.00;;;1.75;;
48847;SDS011;36611;51.638;5.784;2023-06-26T09:53:37;4.00;;;1.80;;
48847;SDS011;36611;51.638;5.784;2023-06-26T09:56:07;2.55;;;1.75;;
48847;SDS011;36611;51.638;5.784;2023-06-26T09:58:33;2.45;;;1.70;;
48847;SDS011;36611;51.638;5.784;2023-06-26T10:01:03;2.90;;;2.00;;
48847;SDS011;36611;51.638;5.784;2023-06-26T10:03:30;3.45;;;2.10;;
48847;SDS011;36611;51.638;5.784;2023-06-26T10:05:56;2.40;;;1.50;;
48847;SDS011;36611;51.638;5.784;2023-06-26T10:08:25;3.72;;;1.55;;
48847;SDS011;36611;51.638;5.784;2023-06-26T10:10:52;2.47;;;2.00;;
48847;SDS011;36611;51.638;5.784;2023-06-26T10:13:21;2.00;;;1.38;;
48847;SDS011;36611;51.638;5.784;2023-06-26T10:15:51;2.45;;;1.85;;
48847;SDS011;36611;51.638;5.784;2023-06-26T10:18:18;2.63;;;1.65;;
48847;SDS011;36611;51.638;5.784;2023-06-26T10:20:47;2.58;;;1.65;;
48847;SDS011;36611;51.638;5.784;2023-06-26T10:23:15;2.90;;;1.85;;
48847;SDS011;36611;51.638;5.784;2023-06-26T10:25:46;2.80;;;1.50;;
48847;SDS011;36611;51.638;5.784;2023-06-26T10:28:17;2.35;;;1.50;;
48847;SDS011;36611;51.638;5.784;2023-06-26T10:30:46;2.53;;;1.55;;
48847;SDS011;36611;51.638;5.784;2023-06-26T10:33:17;2.13;;;1.50;;
48847;SDS011;36611;51.638;5.784;2023-06-26T10:35:45;1.98;;;1.60;;
48847;SDS011;36611;51.638;5.784;2023-06-26T10:38:12;1.75;;;1.40;;
48847;SDS011;36611;51.638;5.784;2023-06-26T10:40:42;2.25;;;1.63;;
48847;SDS011;36611;51.638;5.784;2023-06-26T10:43:15;1.75;;;1.20;;
48847;SDS011;36611;51.638;5.784;2023-06-26T10:45:46;2.70;;;1.38;;
48847;SDS011;36611;51.638;5.784;2023-06-26T10:48:20;3.15;;;1.33;;
48847;SDS011;36611;51.638;5.784;2023-06-26T10:50:47;3.75;;;1.50;;
48847;SDS011;36611;51.638;5.784;2023-06-26T10:56:03;2.00;;;1.27;;
48847;SDS011;36611;51.638;5.784;2023-06-26T11:03:44;2.25;;;1.10;;
48847;SDS011;36611;51.638;5.784;2023-06-26T11:06:18;1.83;;;1.38;;
48847;SDS011;36611;51.638;5.784;2023-06-26T11:08:54;2.97;;;1.13;;
48847;SDS011;36611;51.638;5.784;2023-06-26T11:14:21;1.63;;;0.93;;
48847;SDS011;36611;51.638;5.784;2023-06-26T11:16:49;2.15;;;1.30;;
48847;SDS011;36611;51.638;5.784;2023-06-26T11:19:16;1.90;;;1.00;;
48847;SDS011;36611;51.638;5.784;2023-06-26T11:21:44;1.90;;;1.20;;
48847;SDS011;36611;51.638;5.784;2023-06-26T11:24:12;1.98;;;1.38;;
48847;SDS011;36611;51.638;5.784;2023-06-26T11:26:40;1.27;;;1.00;;
48847;SDS011;36611;51.638;5.784;2023-06-26T11:29:10;2.05;;;1.35;;
48847;SDS011;36611;51.638;5.784;2023-06-26T11:31:39;3.03;;;1.08;;
48847;SDS011;36611;51.638;5.784;2023-06-26T11:34:08;1.83;;;1.10;;
48847;SDS011;36611;51.638;5.784;2023-06-26T11:36:38;1.45;;;1.02;;
48847;SDS011;36611;51.638;5.784;2023-06-26T11:39:08;2.00;;;1.27;;
48847;SDS011;36611;51.638;5.784;2023-06-26T11:41:35;1.92;;;1.10;;
48847;SDS011;36611;51.638;5.784;2023-06-26T11:44:04;1.90;;;1.02;;
48847;SDS011;36611;51.638;5.784;2023-06-26T11:46:33;3.00;;;1.30;;
48847;SDS011;36611;51.638;5.784;2023-06-26T11:49:04;3.33;;;1.13;;
48847;SDS011;36611;51.638;5.784;2023-06-26T11:51:32;1.85;;;1.25;;
48847;SDS011;36611;51.638;5.784;2023-06-26T11:54:00;1.48;;;0.77;;
48847;SDS011;36611;51.638;5.784;2023-06-26T11:56:31;2.40;;;1.17;;
48847;SDS011;36611;51.638;5.784;2023-06-26T12:01:31;3.03;;;1.15;;
48847;SDS011;36611;51.638;5.784;2023-06-26T12:04:11;2.47;;;1.10;;
48847;SDS011;36611;51.638;5.784;2023-06-26T12:06:41;2.67;;;1.10;;
48847;SDS011;36611;51.638;5.784;2023-06-26T12:09:13;1.63;;;1.10;;
48847;SDS011;36611;51.638;5.784;2023-06-26T12:11:41;2.45;;;1.05;;
48847;SDS011;36611;51.638;5.784;2023-06-26T12:14:10;0.95;;;0.80;;
48847;SDS011;36611;51.638;5.784;2023-06-26T12:16:38;1.92;;;1.17;;
48847;SDS011;36611;51.638;5.784;2023-06-26T12:19:06;1.95;;;1.10;;
48847;SDS011;36611;51.638;5.784;2023-06-26T12:24:00;1.80;;;1.10;;
48847;SDS011;36611;51.638;5.784;2023-06-26T12:26:30;1.48;;;0.80;;
48847;SDS011;36611;51.638;5.784;2023-06-26T12:29:03;1.50;;;1.00;;
48847;SDS011;36611;51.638;5.784;2023-06-26T12:31:30;1.83;;;1.10;;
48847;SDS011;36611;51.638;5.784;2023-06-26T12:33:58;1.55;;;1.00;;
48847;SDS011;36611;51.638;5.784;2023-06-26T12:36:25;1.48;;;1.10;;
48847;SDS011;36611;51.638;5.784;2023-06-26T12:38:52;1.58;;;0.80;;
48847;SDS011;36611;51.638;5.784;2023-06-26T12:41:20;1.90;;;1.05;;
48847;SDS011;36611;51.638;5.784;2023-06-26T12:43:55;1.58;;;1.00;;
48847;SDS011;36611;51.638;5.784;2023-06-26T12:46:32;1.40;;;0.98;;
48847;SDS011;36611;51.638;5.784;2023-06-26T12:49:01;1.23;;;0.85;;
48847;SDS011;36611;51.638;5.784;2023-06-26T12:51:37;1.77;;;0.75;;
48847;SDS011;36611;51.638;5.784;2023-06-26T12:54:04;2.47;;;1.42;;
48847;SDS011;36611;51.638;5.784;2023-06-26T12:56:30;1.42;;;0.90;;
48847;SDS011;36611;51.638;5.784;2023-06-26T12:58:57;1.70;;;1.10;;
48847;SDS011;36611;51.638;5.784;2023-06-26T13:01:23;1.80;;;0.90;;
48847;SDS011;36611;51.638;5.784;2023-06-26T13:03:50;1.85;;;1.15;;
48847;SDS011;36611;51.638;5.784;2023-06-26T13:06:18;1.00;;;0.70;;
48847;SDS011;36611;51.638;5.784;2023-06-26T13:08:45;1.40;;;0.90;;
48847;SDS011;36611;51.638;5.784;2023-06-26T13:11:11;1.23;;;0.75;;
48847;SDS011;36611;51.638;5.784;2023-06-26T13:13:38;1.40;;;0.80;;
48847;SDS011;36611;51.638;5.784;2023-06-26T13:16:04;1.40;;;0.90;;
48847;SDS011;36611;51.638;5.784;2023-06-26T13:18:31;1.27;;;0.82;;
48847;SDS011;36611;51.638;5.784;2023-06-26T13:20:58;1.42;;;0.80;;
48847;SDS011;36611;51.638;5.784;2023-06-26T13:23:24;1.20;;;0.90;;
48847;SDS011;36611;51.638;5.784;2023-06-26T13:25:51;1.30;;;0.80;;
48847;SDS011;36611;51.638;5.784;2023-06-26T13:28:18;0.98;;;0.70;;
48847;SDS011;36611;51.638;5.784;2023-06-26T13:30:44;1.42;;;0.80;;
48847;SDS011;36611;51.638;5.784;2023-06-26T13:33:11;1.95;;;0.90;;
48847;SDS011;36611;51.638;5.784;2023-06-26T13:35:37;1.08;;;0.63;;
48847;SDS011;36611;51.638;5.784;2023-06-26T13:38:04;1.27;;;0.88;;
48847;SDS011;36611;51.638;5.784;2023-06-26T13:40:30;2.03;;;1.08;;
48847;SDS011;36611;51.638;5.784;2023-06-26T13:42:57;1.17;;;0.75;;
48847;SDS011;36611;51.638;5.784;2023-06-26T13:45:25;2.22;;;0.90;;
48847;SDS011;36611;51.638;5.784;2023-06-26T13:47:57;1.00;;;0.60;;
48847;SDS011;36611;51.638;5.784;2023-06-26T13:50:24;1.80;;;0.93;;
48847;SDS011;36611;51.638;5.784;2023-06-26T13:52:50;1.08;;;0.70;;
48847;SDS011;36611;51.638;5.784;2023-06-26T13:55:17;2.13;;;0.88;;
48847;SDS011;36611;51.638;5.784;2023-06-26T13:57:44;0.80;;;0.80;;
48847;SDS011;36611;51.638;5.784;2023-06-26T14:00:11;1.48;;;0.80;;
48847;SDS011;36611;51.638;5.784;2023-06-26T14:02:38;2.03;;;0.88;;
48847;SDS011;36611;51.638;5.784;2023-06-26T14:05:05;1.98;;;1.08;;
48847;SDS011;36611;51.638;5.784;2023-06-26T14:07:32;1.33;;;0.77;;
48847;SDS011;36611;51.638;5.784;2023-06-26T14:10:01;0.98;;;0.75;;
48847;SDS011;36611;51.638;5.784;2023-06-26T14:12:28;1.38;;;0.80;;
48847;SDS011;36611;51.638;5.784;2023-06-26T14:14:54;1.02;;;0.73;;
48847;SDS011;36611;51.638;5.784;2023-06-26T14:17:21;1.33;;;0.70;;
48847;SDS011;36611;51.638;5.784;2023-06-26T14:19:50;1.67;;;0.73;;
48847;SDS011;36611;51.638;5.784;2023-06-26T14:22:17;1.25;;;0.70;;
48847;SDS011;36611;51.638;5.784;2023-06-26T14:24:44;1.20;;;0.68;;
48847;SDS011;36611;51.638;5.784;2023-06-26T14:27:10;2.45;;;0.80;;
48847;SDS011;36611;51.638;5.784;2023-06-26T14:29:37;1.80;;;0.70;;
48847;SDS011;36611;51.638;5.784;2023-06-26T14:32:05;0.80;;;0.60;;
48847;SDS011;36611;51.638;5.784;2023-06-26T14:34:33;1.25;;;0.75;;
48847;SDS011;36611;51.638;5.784;2023-06-26T14:36:59;1.60;;;0.70;;
48847;SDS011;36611;51.638;5.784;2023-06-26T14:39:26;1.63;;;0.68;;
48847;SDS011;36611;51.638;5.784;2023-06-26T14:41:53;1.00;;;0.70;;
48847;SDS011;36611;51.638;5.784;2023-06-26T14:44:20;1.13;;;0.50;;
48847;SDS011;36611;51.638;5.784;2023-06-26T14:46:47;0.88;;;0.68;;
48847;SDS011;36611;51.638;5.784;2023-06-26T14:49:14;1.33;;;0.70;;
48847;SDS011;36611;51.638;5.784;2023-06-26T14:51:40;1.48;;;0.70;;
48847;SDS011;36611;51.638;5.784;2023-06-26T14:54:07;1.60;;;0.60;;
48847;SDS011;36611;51.638;5.784;2023-06-26T14:56:35;1.73;;;0.90;;
48847;SDS011;36611;51.638;5.784;2023-06-26T14:59:01;0.98;;;0.57;;
48847;SDS011;36611;51.638;5.784;2023-06-26T15:01:28;0.95;;;0.60;;
48847;SDS011;36611;51.638;5.784;2023-06-26T15:03:56;1.17;;;0.60;;
48847;SDS011;36611;51.638;5.784;2023-06-26T15:06:22;1.15;;;0.70;;
48847;SDS011;36611;51.638;5.784;2023-06-26T15:08:50;0.98;;;0.50;;
48847;SDS011;36611;51.638;5.784;2023-06-26T15:11:17;1.27;;;0.60;;
48847;SDS011;36611;51.638;5.784;2023-06-26T15:13:44;1.35;;;0.60;;
48847;SDS011;36611;51.638;5.784;2023-06-26T15:16:11;1.13;;;0.65;;